sensor_id;sensor_type;location;lat;lon;timestamp;P1;durP1;ratioP1;P2;durP2;ratioP2
29958;SDS011;16815;51.100;6.516;2022-12-18T00:01:52;24.93;;;15.40;;
29958;SDS011;16815;51.100;6.516;2022-12-18T00:04:22;27.13;;;16.13;;
29958;SDS011;16815;51.100;6.516;2022-12-18T00:06:48;27.27;;;16.97;;
29958;SDS011;16815;51.100;6.516;2022-12-18T00:09:14;27.03;;;16.07;;
29958;SDS011;16815;51.100;6.516;2022-12-18T00:11:40;23.77;;;14.03;;
29958;SDS011;16815;51.100;6.516;2022-12-18T00:14:06;25.47;;;15.13;;
29958;SDS011;16815;51.100;6.516;2022-12-18T00:16:32;25.87;;;15.27;;
29958;SDS011;16815;51.100;6.516;2022-12-18T00:19:00;31.57;;;16.00;;
29958;SDS011;16815;51.100;6.516;2022-12-18T00:21:27;36.93;;;18.73;;
29958;SDS011;16815;51.100;6.516;2022-12-18T00:23:53;34.20;;;18.60;;
29958;SDS011;16815;51.100;6.516;2022-12-18T00:26:20;34.10;;;17.00;;
29958;SDS011;16815;51.100;6.516;2022-12-18T00:28:47;33.73;;;16.03;;
29958;SDS011;16815;51.100;6.516;2022-12-18T00:31:15;27.60;;;15.30;;
29958;SDS011;16815;51.100;6.516;2022-12-18T00:33:41;28.47;;;15.83;;
29958;SDS011;16815;51.100;6.516;2022-12-18T00:36:11;27.83;;;14.93;;
29958;SDS011;16815;51.100;6.516;2022-12-18T00:38:37;24.80;;;14.13;;
29958;SDS011;16815;51.100;6.516;2022-12-18T00:41:04;24.63;;;14.13;;
29958;SDS011;16815;51.100;6.516;2022-12-18T00:43:30;24.37;;;14.57;;
29958;SDS011;16815;51.100;6.516;2022-12-18T00:45:59;23.93;;;13.47;;
29958;SDS011;16815;51.100;6.516;2022-12-18T00:48:25;22.17;;;13.80;;
29958;SDS011;16815;51.100;6.516;2022-12-18T00:50:51;25.57;;;14.97;;
29958;SDS011;16815;51.100;6.516;2022-12-18T00:53:17;25.47;;;14.10;;
29958;SDS011;16815;51.100;6.516;2022-12-18T00:55:44;23.00;;;14.13;;
29958;SDS011;16815;51.100;6.516;2022-12-18T00:58:10;25.47;;;15.10;;
29958;SDS011;16815;51.100;6.516;2022-12-18T01:00:36;23.73;;;14.73;;
29958;SDS011;16815;51.100;6.516;2022-12-18T01:03:03;32.87;;;16.70;;
29958;SDS011;16815;51.100;6.516;2022-12-18T01:05:29;26.67;;;16.27;;
29958;SDS011;16815;51.100;6.516;2022-12-18T01:07:55;27.30;;;16.77;;
29958;SDS011;16815;51.100;6.516;2022-12-18T01:10:21;32.87;;;17.10;;
29958;SDS011;16815;51.100;6.516;2022-12-18T01:12:47;26.30;;;16.37;;
29958;SDS011;16815;51.100;6.516;2022-12-18T01:15:13;24.70;;;15.10;;
29958;SDS011;16815;51.100;6.516;2022-12-18T01:17:39;23.10;;;14.50;;
29958;SDS011;16815;51.100;6.516;2022-12-18T01:20:05;20.57;;;13.33;;
29958;SDS011;16815;51.100;6.516;2022-12-18T01:22:32;20.57;;;13.67;;
29958;SDS011;16815;51.100;6.516;2022-12-18T01:24:57;19.63;;;12.27;;
29958;SDS011;16815;51.100;6.516;2022-12-18T01:27:23;22.33;;;14.03;;
29958;SDS011;16815;51.100;6.516;2022-12-18T01:29:49;20.43;;;13.03;;
29958;SDS011;16815;51.100;6.516;2022-12-18T01:32:15;22.67;;;13.90;;
29958;SDS011;16815;51.100;6.516;2022-12-18T01:34:41;23.57;;;14.60;;
29958;SDS011;16815;51.100;6.516;2022-12-18T01:37:07;23.77;;;13.73;;
29958;SDS011;16815;51.100;6.516;2022-12-18T01:39:33;22.10;;;13.20;;
29958;SDS011;16815;51.100;6.516;2022-12-18T01:42:00;22.53;;;13.13;;
29958;SDS011;16815;51.100;6.516;2022-12-18T01:47:15;22.73;;;13.30;;
29958;SDS011;16815;51.100;6.516;2022-12-18T01:49:43;21.27;;;12.50;;
29958;SDS011;16815;51.100;6.516;2022-12-18T01:52:09;19.23;;;12.00;;
29958;SDS011;16815;51.100;6.516;2022-12-18T01:54:35;18.93;;;12.47;;
29958;SDS011;16815;51.100;6.516;2022-12-18T01:57:01;20.07;;;12.47;;
29958;SDS011;16815;51.100;6.516;2022-12-18T01:59:27;21.13;;;11.93;;
29958;SDS011;16815;51.100;6.516;2022-12-18T02:01:53;22.00;;;12.67;;
29958;SDS011;16815;51.100;6.516;2022-12-18T02:04:21;21.03;;;12.90;;
29958;SDS011;16815;51.100;6.516;2022-12-18T02:06:48;22.60;;;13.23;;
29958;SDS011;16815;51.100;6.516;2022-12-18T02:09:18;21.40;;;13.37;;
29958;SDS011;16815;51.100;6.516;2022-12-18T02:11:52;18.90;;;12.63;;
29958;SDS011;16815;51.100;6.516;2022-12-18T02:25:13;22.30;;;13.60;;
29958;SDS011;16815;51.100;6.516;2022-12-18T02:27:44;22.43;;;12.50;;
29958;SDS011;16815;51.100;6.516;2022-12-18T02:30:11;17.87;;;11.90;;
29958;SDS011;16815;51.100;6.516;2022-12-18T02:32:38;21.47;;;13.23;;
29958;SDS011;16815;51.100;6.516;2022-12-18T02:35:06;21.93;;;13.20;;
29958;SDS011;16815;51.100;6.516;2022-12-18T02:37:33;22.43;;;13.57;;
29958;SDS011;16815;51.100;6.516;2022-12-18T02:40:00;25.57;;;14.60;;
29958;SDS011;16815;51.100;6.516;2022-12-18T02:42:27;23.93;;;13.67;;
29958;SDS011;16815;51.100;6.516;2022-12-18T02:44:56;22.40;;;14.40;;
29958;SDS011;16815;51.100;6.516;2022-12-18T02:47:24;21.13;;;13.60;;
29958;SDS011;16815;51.100;6.516;2022-12-18T02:55:00;23.00;;;14.90;;
29958;SDS011;16815;51.100;6.516;2022-12-18T03:00:11;22.33;;;13.70;;
29958;SDS011;16815;51.100;6.516;2022-12-18T03:02:48;24.63;;;15.80;;
29958;SDS011;16815;51.100;6.516;2022-12-18T03:05:17;21.23;;;13.77;;
29958;SDS011;16815;51.100;6.516;2022-12-18T03:07:56;24.77;;;14.50;;
29958;SDS011;16815;51.100;6.516;2022-12-18T03:10:25;22.17;;;13.87;;
29958;SDS011;16815;51.100;6.516;2022-12-18T03:12:53;22.47;;;14.40;;
29958;SDS011;16815;51.100;6.516;2022-12-18T03:15:27;22.90;;;14.53;;
29958;SDS011;16815;51.100;6.516;2022-12-18T03:18:02;21.17;;;13.30;;
29958;SDS011;16815;51.100;6.516;2022-12-18T03:20:31;23.37;;;14.27;;
29958;SDS011;16815;51.100;6.516;2022-12-18T03:23:00;21.30;;;14.30;;
29958;SDS011;16815;51.100;6.516;2022-12-18T03:25:28;25.57;;;15.23;;
29958;SDS011;16815;51.100;6.516;2022-12-18T03:27:56;27.40;;;15.20;;
29958;SDS011;16815;51.100;6.516;2022-12-18T03:30:24;22.87;;;14.30;;
29958;SDS011;16815;51.100;6.516;2022-12-18T03:32:52;26.00;;;15.73;;
29958;SDS011;16815;51.100;6.516;2022-12-18T03:35:24;20.43;;;14.13;;
29958;SDS011;16815;51.100;6.516;2022-12-18T03:37:52;23.63;;;14.77;;
29958;SDS011;16815;51.100;6.516;2022-12-18T03:40:18;21.13;;;14.13;;
29958;SDS011;16815;51.100;6.516;2022-12-18T03:42:52;20.20;;;14.03;;
29958;SDS011;16815;51.100;6.516;2022-12-18T03:45:26;24.60;;;15.20;;
29958;SDS011;16815;51.100;6.516;2022-12-18T03:50:22;22.77;;;14.93;;
29958;SDS011;16815;51.100;6.516;2022-12-18T03:55:21;23.60;;;14.53;;
29958;SDS011;16815;51.100;6.516;2022-12-18T03:57:48;24.07;;;14.20;;
29958;SDS011;16815;51.100;6.516;2022-12-18T04:00:16;22.23;;;13.60;;
29958;SDS011;16815;51.100;6.516;2022-12-18T04:02:43;21.40;;;14.07;;
29958;SDS011;16815;51.100;6.516;2022-12-18T04:05:11;23.40;;;14.00;;
29958;SDS011;16815;51.100;6.516;2022-12-18T04:07:38;21.87;;;13.67;;
29958;SDS011;16815;51.100;6.516;2022-12-18T04:10:04;24.07;;;14.47;;
29958;SDS011;16815;51.100;6.516;2022-12-18T04:12:31;21.17;;;13.10;;
29958;SDS011;16815;51.100;6.516;2022-12-18T04:14:57;17.77;;;12.37;;
29958;SDS011;16815;51.100;6.516;2022-12-18T04:17:23;18.07;;;13.03;;
29958;SDS011;16815;51.100;6.516;2022-12-18T04:19:49;23.70;;;14.03;;
29958;SDS011;16815;51.100;6.516;2022-12-18T04:22:15;20.20;;;12.93;;
29958;SDS011;16815;51.100;6.516;2022-12-18T04:24:41;21.03;;;12.27;;
29958;SDS011;16815;51.100;6.516;2022-12-18T04:27:07;21.53;;;14.00;;
29958;SDS011;16815;51.100;6.516;2022-12-18T04:29:33;18.13;;;12.27;;
29958;SDS011;16815;51.100;6.516;2022-12-18T04:31:59;23.40;;;15.17;;
29958;SDS011;16815;51.100;6.516;2022-12-18T04:34:25;21.67;;;13.37;;
29958;SDS011;16815;51.100;6.516;2022-12-18T04:36:51;20.07;;;13.67;;
29958;SDS011;16815;51.100;6.516;2022-12-18T04:39:17;21.33;;;13.17;;
29958;SDS011;16815;51.100;6.516;2022-12-18T04:41:43;22.40;;;13.40;;
29958;SDS011;16815;51.100;6.516;2022-12-18T04:44:09;21.87;;;13.70;;
29958;SDS011;16815;51.100;6.516;2022-12-18T04:46:35;22.50;;;13.87;;
29958;SDS011;16815;51.100;6.516;2022-12-18T04:49:01;20.07;;;13.20;;
29958;SDS011;16815;51.100;6.516;2022-12-18T04:51:27;23.37;;;14.90;;
29958;SDS011;16815;51.100;6.516;2022-12-18T04:53:53;21.37;;;13.07;;
29958;SDS011;16815;51.100;6.516;2022-12-18T04:56:19;18.87;;;12.90;;
29958;SDS011;16815;51.100;6.516;2022-12-18T04:58:45;20.07;;;12.60;;
29958;SDS011;16815;51.100;6.516;2022-12-18T05:01:12;22.13;;;13.73;;
29958;SDS011;16815;51.100;6.516;2022-12-18T05:03:38;21.87;;;13.47;;
29958;SDS011;16815;51.100;6.516;2022-12-18T05:06:04;21.30;;;12.97;;
29958;SDS011;16815;51.100;6.516;2022-12-18T05:08:30;21.60;;;13.53;;
29958;SDS011;16815;51.100;6.516;2022-12-18T05:11:00;18.90;;;13.23;;
29958;SDS011;16815;51.100;6.516;2022-12-18T05:13:26;22.30;;;14.13;;
29958;SDS011;16815;51.100;6.516;2022-12-18T05:15:52;22.73;;;14.87;;
29958;SDS011;16815;51.100;6.516;2022-12-18T05:18:18;19.77;;;13.93;;
29958;SDS011;16815;51.100;6.516;2022-12-18T05:20:44;21.63;;;12.67;;
29958;SDS011;16815;51.100;6.516;2022-12-18T05:23:10;18.67;;;13.00;;
29958;SDS011;16815;51.100;6.516;2022-12-18T05:25:36;21.50;;;13.40;;
29958;SDS011;16815;51.100;6.516;2022-12-18T05:28:02;21.17;;;13.53;;
29958;SDS011;16815;51.100;6.516;2022-12-18T05:30:28;20.83;;;13.70;;
29958;SDS011;16815;51.100;6.516;2022-12-18T05:32:54;23.73;;;15.13;;
29958;SDS011;16815;51.100;6.516;2022-12-18T05:35:20;23.07;;;13.93;;
29958;SDS011;16815;51.100;6.516;2022-12-18T05:37:46;20.83;;;14.53;;
29958;SDS011;16815;51.100;6.516;2022-12-18T05:40:12;21.00;;;13.60;;
29958;SDS011;16815;51.100;6.516;2022-12-18T05:42:38;22.27;;;14.13;;
29958;SDS011;16815;51.100;6.516;2022-12-18T05:45:04;22.10;;;14.93;;
29958;SDS011;16815;51.100;6.516;2022-12-18T05:47:31;21.40;;;14.00;;
29958;SDS011;16815;51.100;6.516;2022-12-18T05:49:57;19.77;;;13.73;;
29958;SDS011;16815;51.100;6.516;2022-12-18T05:52:23;21.23;;;13.73;;
29958;SDS011;16815;51.100;6.516;2022-12-18T05:54:49;20.70;;;12.97;;
29958;SDS011;16815;51.100;6.516;2022-12-18T05:57:15;23.23;;;14.73;;
29958;SDS011;16815;51.100;6.516;2022-12-18T05:59:41;18.93;;;13.73;;
29958;SDS011;16815;51.100;6.516;2022-12-18T06:02:07;20.77;;;14.10;;
29958;SDS011;16815;51.100;6.516;2022-12-18T06:04:33;23.43;;;14.13;;
29958;SDS011;16815;51.100;6.516;2022-12-18T06:06:59;25.23;;;14.80;;
29958;SDS011;16815;51.100;6.516;2022-12-18T06:09:28;27.37;;;15.03;;
29958;SDS011;16815;51.100;6.516;2022-12-18T06:11:54;24.90;;;13.80;;
29958;SDS011;16815;51.100;6.516;2022-12-18T06:14:20;25.93;;;15.33;;
29958;SDS011;16815;51.100;6.516;2022-12-18T06:16:46;22.67;;;13.87;;
29958;SDS011;16815;51.100;6.516;2022-12-18T06:19:15;23.53;;;14.70;;
29958;SDS011;16815;51.100;6.516;2022-12-18T06:21:41;24.17;;;15.20;;
29958;SDS011;16815;51.100;6.516;2022-12-18T06:24:07;24.70;;;15.57;;
29958;SDS011;16815;51.100;6.516;2022-12-18T06:26:33;26.77;;;15.87;;
29958;SDS011;16815;51.100;6.516;2022-12-18T06:28:59;22.47;;;15.40;;
29958;SDS011;16815;51.100;6.516;2022-12-18T06:31:25;26.00;;;15.70;;
29958;SDS011;16815;51.100;6.516;2022-12-18T06:33:51;26.27;;;14.70;;
29958;SDS011;16815;51.100;6.516;2022-12-18T06:36:17;22.97;;;14.60;;
29958;SDS011;16815;51.100;6.516;2022-12-18T06:38:44;26.60;;;16.07;;
29958;SDS011;16815;51.100;6.516;2022-12-18T06:41:11;24.93;;;16.50;;
29958;SDS011;16815;51.100;6.516;2022-12-18T06:43:37;26.43;;;16.00;;
29958;SDS011;16815;51.100;6.516;2022-12-18T06:46:03;24.13;;;15.43;;
29958;SDS011;16815;51.100;6.516;2022-12-18T06:48:30;21.50;;;14.43;;
29958;SDS011;16815;51.100;6.516;2022-12-18T06:50:56;24.33;;;15.23;;
29958;SDS011;16815;51.100;6.516;2022-12-18T06:53:22;21.83;;;13.73;;
29958;SDS011;16815;51.100;6.516;2022-12-18T06:55:48;22.87;;;13.90;;
29958;SDS011;16815;51.100;6.516;2022-12-18T06:58:14;25.63;;;15.87;;
29958;SDS011;16815;51.100;6.516;2022-12-18T07:00:40;24.17;;;14.63;;
29958;SDS011;16815;51.100;6.516;2022-12-18T07:03:06;21.77;;;15.20;;
29958;SDS011;16815;51.100;6.516;2022-12-18T07:05:32;20.93;;;14.50;;
29958;SDS011;16815;51.100;6.516;2022-12-18T07:07:58;26.63;;;16.03;;
29958;SDS011;16815;51.100;6.516;2022-12-18T07:10:24;25.17;;;15.73;;
29958;SDS011;16815;51.100;6.516;2022-12-18T07:12:50;23.87;;;15.90;;
29958;SDS011;16815;51.100;6.516;2022-12-18T07:15:16;24.73;;;14.97;;
29958;SDS011;16815;51.100;6.516;2022-12-18T07:17:42;26.17;;;17.03;;
29958;SDS011;16815;51.100;6.516;2022-12-18T07:20:08;23.70;;;15.37;;
29958;SDS011;16815;51.100;6.516;2022-12-18T07:22:34;22.37;;;14.70;;
29958;SDS011;16815;51.100;6.516;2022-12-18T07:25:00;26.57;;;14.03;;
29958;SDS011;16815;51.100;6.516;2022-12-18T07:27:26;24.30;;;16.33;;
29958;SDS011;16815;51.100;6.516;2022-12-18T07:29:52;23.30;;;15.40;;
29958;SDS011;16815;51.100;6.516;2022-12-18T07:32:18;26.03;;;15.70;;
29958;SDS011;16815;51.100;6.516;2022-12-18T07:34:44;23.40;;;15.73;;
29958;SDS011;16815;51.100;6.516;2022-12-18T07:37:10;26.43;;;15.97;;
29958;SDS011;16815;51.100;6.516;2022-12-18T07:39:36;26.23;;;16.03;;
29958;SDS011;16815;51.100;6.516;2022-12-18T07:42:02;23.70;;;15.30;;
29958;SDS011;16815;51.100;6.516;2022-12-18T07:44:46;24.67;;;16.30;;
29958;SDS011;16815;51.100;6.516;2022-12-18T07:47:12;25.77;;;15.23;;
29958;SDS011;16815;51.100;6.516;2022-12-18T07:49:41;25.60;;;15.50;;
29958;SDS011;16815;51.100;6.516;2022-12-18T07:52:07;24.30;;;15.90;;
29958;SDS011;16815;51.100;6.516;2022-12-18T07:54:34;25.70;;;15.57;;
29958;SDS011;16815;51.100;6.516;2022-12-18T07:57:00;23.90;;;15.77;;
29958;SDS011;16815;51.100;6.516;2022-12-18T07:59:26;27.40;;;15.87;;
29958;SDS011;16815;51.100;6.516;2022-12-18T08:01:52;24.57;;;15.80;;
29958;SDS011;16815;51.100;6.516;2022-12-18T08:04:18;24.53;;;15.63;;
29958;SDS011;16815;51.100;6.516;2022-12-18T08:06:44;24.53;;;15.27;;
29958;SDS011;16815;51.100;6.516;2022-12-18T08:09:09;23.50;;;15.10;;
29958;SDS011;16815;51.100;6.516;2022-12-18T08:11:35;23.93;;;15.77;;
29958;SDS011;16815;51.100;6.516;2022-12-18T08:14:01;22.40;;;14.17;;
29958;SDS011;16815;51.100;6.516;2022-12-18T08:16:27;23.87;;;15.60;;
29958;SDS011;16815;51.100;6.516;2022-12-18T08:18:53;22.90;;;15.17;;
29958;SDS011;16815;51.100;6.516;2022-12-18T08:21:23;21.93;;;15.30;;
29958;SDS011;16815;51.100;6.516;2022-12-18T08:23:50;23.03;;;14.20;;
29958;SDS011;16815;51.100;6.516;2022-12-18T08:26:16;23.40;;;14.50;;
29958;SDS011;16815;51.100;6.516;2022-12-18T08:28:42;20.20;;;14.43;;
29958;SDS011;16815;51.100;6.516;2022-12-18T08:31:08;24.43;;;15.33;;
29958;SDS011;16815;51.100;6.516;2022-12-18T08:33:35;23.40;;;14.00;;
29958;SDS011;16815;51.100;6.516;2022-12-18T08:36:01;24.60;;;15.30;;
29958;SDS011;16815;51.100;6.516;2022-12-18T08:38:27;21.87;;;14.80;;
29958;SDS011;16815;51.100;6.516;2022-12-18T08:40:58;19.73;;;14.10;;
29958;SDS011;16815;51.100;6.516;2022-12-18T08:43:24;22.57;;;14.43;;
29958;SDS011;16815;51.100;6.516;2022-12-18T08:46:08;22.87;;;13.87;;
29958;SDS011;16815;51.100;6.516;2022-12-18T08:48:34;21.73;;;14.77;;
29958;SDS011;16815;51.100;6.516;2022-12-18T08:51:00;24.47;;;14.60;;
29958;SDS011;16815;51.100;6.516;2022-12-18T08:53:26;21.93;;;13.87;;
29958;SDS011;16815;51.100;6.516;2022-12-18T08:55:52;21.77;;;14.13;;
29958;SDS011;16815;51.100;6.516;2022-12-18T08:58:19;22.30;;;14.40;;
29958;SDS011;16815;51.100;6.516;2022-12-18T09:00:45;23.63;;;14.63;;
29958;SDS011;16815;51.100;6.516;2022-12-18T09:03:17;21.07;;;14.23;;
29958;SDS011;16815;51.100;6.516;2022-12-18T09:05:43;20.10;;;13.03;;
29958;SDS011;16815;51.100;6.516;2022-12-18T09:08:10;22.03;;;13.97;;
29958;SDS011;16815;51.100;6.516;2022-12-18T09:10:43;21.40;;;13.80;;
29958;SDS011;16815;51.100;6.516;2022-12-18T09:13:12;22.23;;;15.17;;
29958;SDS011;16815;51.100;6.516;2022-12-18T09:15:42;21.90;;;13.97;;
29958;SDS011;16815;51.100;6.516;2022-12-18T09:18:10;20.40;;;13.40;;
29958;SDS011;16815;51.100;6.516;2022-12-18T09:20:36;24.80;;;14.83;;
29958;SDS011;16815;51.100;6.516;2022-12-18T09:23:02;24.40;;;14.63;;
29958;SDS011;16815;51.100;6.516;2022-12-18T09:25:28;21.00;;;14.37;;
29958;SDS011;16815;51.100;6.516;2022-12-18T09:27:58;22.70;;;14.23;;
29958;SDS011;16815;51.100;6.516;2022-12-18T09:30:24;22.17;;;15.40;;
29958;SDS011;16815;51.100;6.516;2022-12-18T09:32:49;22.70;;;14.20;;
29958;SDS011;16815;51.100;6.516;2022-12-18T09:35:15;22.27;;;14.77;;
29958;SDS011;16815;51.100;6.516;2022-12-18T09:37:42;22.17;;;14.77;;
29958;SDS011;16815;51.100;6.516;2022-12-18T09:40:13;23.83;;;15.60;;
29958;SDS011;16815;51.100;6.516;2022-12-18T09:42:39;22.37;;;14.03;;
29958;SDS011;16815;51.100;6.516;2022-12-18T09:45:07;24.30;;;14.50;;
29958;SDS011;16815;51.100;6.516;2022-12-18T09:47:37;20.90;;;14.27;;
29958;SDS011;16815;51.100;6.516;2022-12-18T09:50:05;22.70;;;15.10;;
29958;SDS011;16815;51.100;6.516;2022-12-18T09:55:11;25.83;;;15.37;;
29958;SDS011;16815;51.100;6.516;2022-12-18T09:57:42;22.83;;;14.80;;
29958;SDS011;16815;51.100;6.516;2022-12-18T10:02:36;22.77;;;14.47;;
29958;SDS011;16815;51.100;6.516;2022-12-18T10:08:00;21.57;;;14.60;;
29958;SDS011;16815;51.100;6.516;2022-12-18T10:10:42;24.60;;;14.97;;
29958;SDS011;16815;51.100;6.516;2022-12-18T10:13:13;23.93;;;14.90;;
29958;SDS011;16815;51.100;6.516;2022-12-18T10:15:45;25.73;;;15.43;;
29958;SDS011;16815;51.100;6.516;2022-12-18T10:18:17;21.40;;;14.73;;
29958;SDS011;16815;51.100;6.516;2022-12-18T10:20:45;21.63;;;14.37;;
29958;SDS011;16815;51.100;6.516;2022-12-18T10:23:18;19.30;;;13.87;;
29958;SDS011;16815;51.100;6.516;2022-12-18T10:28:13;24.33;;;14.73;;
29958;SDS011;16815;51.100;6.516;2022-12-18T10:30:40;21.73;;;14.70;;
29958;SDS011;16815;51.100;6.516;2022-12-18T10:33:10;21.20;;;14.73;;
29958;SDS011;16815;51.100;6.516;2022-12-18T10:35:37;22.60;;;14.43;;
29958;SDS011;16815;51.100;6.516;2022-12-18T10:38:07;22.50;;;14.60;;
29958;SDS011;16815;51.100;6.516;2022-12-18T10:41:00;22.60;;;15.73;;
29958;SDS011;16815;51.100;6.516;2022-12-18T10:48:25;21.33;;;14.57;;
29958;SDS011;16815;51.100;6.516;2022-12-18T10:50:51;22.97;;;15.20;;
29958;SDS011;16815;51.100;6.516;2022-12-18T10:53:27;21.40;;;14.43;;
29958;SDS011;16815;51.100;6.516;2022-12-18T10:55:55;24.67;;;15.83;;
29958;SDS011;16815;51.100;6.516;2022-12-18T10:58:28;22.43;;;14.40;;
29958;SDS011;16815;51.100;6.516;2022-12-18T11:03:44;21.03;;;14.23;;
29958;SDS011;16815;51.100;6.516;2022-12-18T11:06:12;22.47;;;14.93;;
29958;SDS011;16815;51.100;6.516;2022-12-18T11:08:38;23.80;;;14.87;;
29958;SDS011;16815;51.100;6.516;2022-12-18T11:11:06;22.97;;;14.60;;
29958;SDS011;16815;51.100;6.516;2022-12-18T11:13:33;22.67;;;15.10;;
29958;SDS011;16815;51.100;6.516;2022-12-18T11:15:59;23.27;;;14.37;;
29958;SDS011;16815;51.100;6.516;2022-12-18T11:18:29;22.53;;;14.93;;
29958;SDS011;16815;51.100;6.516;2022-12-18T11:20:56;23.60;;;15.77;;
29958;SDS011;16815;51.100;6.516;2022-12-18T11:23:23;22.67;;;14.17;;
29958;SDS011;16815;51.100;6.516;2022-12-18T11:25:53;22.90;;;14.23;;
29958;SDS011;16815;51.100;6.516;2022-12-18T11:28:27;23.80;;;15.10;;
29958;SDS011;16815;51.100;6.516;2022-12-18T11:31:11;23.07;;;15.77;;
29958;SDS011;16815;51.100;6.516;2022-12-18T11:33:37;21.27;;;15.40;;
29958;SDS011;16815;51.100;6.516;2022-12-18T11:36:05;21.67;;;14.63;;
29958;SDS011;16815;51.100;6.516;2022-12-18T11:38:34;21.90;;;15.23;;
29958;SDS011;16815;51.100;6.516;2022-12-18T11:46:13;20.57;;;14.40;;
29958;SDS011;16815;51.100;6.516;2022-12-18T11:48:50;22.50;;;14.43;;
29958;SDS011;16815;51.100;6.516;2022-12-18T11:51:23;22.50;;;14.00;;
29958;SDS011;16815;51.100;6.516;2022-12-18T11:53:51;23.83;;;14.80;;
29958;SDS011;16815;51.100;6.516;2022-12-18T11:58:44;26.73;;;14.93;;
29958;SDS011;16815;51.100;6.516;2022-12-18T12:01:28;26.40;;;14.40;;
29958;SDS011;16815;51.100;6.516;2022-12-18T12:04:13;22.10;;;15.20;;
29958;SDS011;16815;51.100;6.516;2022-12-18T12:06:49;22.63;;;15.87;;
29958;SDS011;16815;51.100;6.516;2022-12-18T12:09:31;21.83;;;14.77;;
29958;SDS011;16815;51.100;6.516;2022-12-18T12:22:23;27.00;;;15.43;;
29958;SDS011;16815;51.100;6.516;2022-12-18T12:24:56;22.23;;;14.80;;
29958;SDS011;16815;51.100;6.516;2022-12-18T12:35:43;23.70;;;15.83;;
29958;SDS011;16815;51.100;6.516;2022-12-18T12:40:38;23.37;;;15.30;;
29958;SDS011;16815;51.100;6.516;2022-12-18T12:43:10;22.57;;;15.90;;
29958;SDS011;16815;51.100;6.516;2022-12-18T12:45:44;23.77;;;16.10;;
29958;SDS011;16815;51.100;6.516;2022-12-18T12:48:16;27.07;;;15.43;;
29958;SDS011;16815;51.100;6.516;2022-12-18T12:50:43;25.20;;;15.40;;
29958;SDS011;16815;51.100;6.516;2022-12-18T12:53:12;22.53;;;15.53;;
29958;SDS011;16815;51.100;6.516;2022-12-18T12:55:41;25.37;;;16.10;;
29958;SDS011;16815;51.100;6.516;2022-12-18T13:00:36;24.53;;;16.40;;
29958;SDS011;16815;51.100;6.516;2022-12-18T13:03:11;21.57;;;15.43;;
29958;SDS011;16815;51.100;6.516;2022-12-18T13:05:58;26.50;;;16.77;;
29958;SDS011;16815;51.100;6.516;2022-12-18T13:08:29;26.37;;;17.50;;
29958;SDS011;16815;51.100;6.516;2022-12-18T13:10:56;25.73;;;16.50;;
29958;SDS011;16815;51.100;6.516;2022-12-18T13:13:52;22.67;;;15.63;;
29958;SDS011;16815;51.100;6.516;2022-12-18T13:16:20;25.57;;;16.50;;
29958;SDS011;16815;51.100;6.516;2022-12-18T13:19:01;26.20;;;15.77;;
29958;SDS011;16815;51.100;6.516;2022-12-18T13:21:28;24.40;;;16.77;;
29958;SDS011;16815;51.100;6.516;2022-12-18T13:23:55;27.83;;;17.33;;
29958;SDS011;16815;51.100;6.516;2022-12-18T13:31:14;27.07;;;16.30;;
29958;SDS011;16815;51.100;6.516;2022-12-18T13:38:47;24.93;;;16.27;;
29958;SDS011;16815;51.100;6.516;2022-12-18T13:41:33;26.17;;;16.97;;
29958;SDS011;16815;51.100;6.516;2022-12-18T13:44:12;25.63;;;16.10;;
29958;SDS011;16815;51.100;6.516;2022-12-18T13:46:45;28.20;;;17.20;;
29958;SDS011;16815;51.100;6.516;2022-12-18T13:51:39;27.47;;;17.37;;
29958;SDS011;16815;51.100;6.516;2022-12-18T13:56:43;25.83;;;16.77;;
29958;SDS011;16815;51.100;6.516;2022-12-18T13:59:11;29.40;;;17.47;;
29958;SDS011;16815;51.100;6.516;2022-12-18T14:01:41;26.53;;;17.43;;
29958;SDS011;16815;51.100;6.516;2022-12-18T14:04:11;26.60;;;16.77;;
29958;SDS011;16815;51.100;6.516;2022-12-18T14:06:38;25.33;;;16.57;;
29958;SDS011;16815;51.100;6.516;2022-12-18T14:09:04;25.30;;;16.83;;
29958;SDS011;16815;51.100;6.516;2022-12-18T14:11:30;24.40;;;16.47;;
29958;SDS011;16815;51.100;6.516;2022-12-18T14:13:56;29.73;;;17.47;;
29958;SDS011;16815;51.100;6.516;2022-12-18T14:16:22;25.27;;;16.67;;
29958;SDS011;16815;51.100;6.516;2022-12-18T14:21:19;22.70;;;16.17;;
29958;SDS011;16815;51.100;6.516;2022-12-18T14:23:45;28.07;;;17.10;;
29958;SDS011;16815;51.100;6.516;2022-12-18T14:26:22;26.73;;;16.33;;
29958;SDS011;16815;51.100;6.516;2022-12-18T14:28:49;25.47;;;17.70;;
29958;SDS011;16815;51.100;6.516;2022-12-18T14:31:17;26.07;;;16.63;;
29958;SDS011;16815;51.100;6.516;2022-12-18T14:33:43;26.20;;;17.80;;
29958;SDS011;16815;51.100;6.516;2022-12-18T14:36:14;27.70;;;17.27;;
29958;SDS011;16815;51.100;6.516;2022-12-18T14:38:41;26.10;;;17.57;;
29958;SDS011;16815;51.100;6.516;2022-12-18T14:43:37;29.80;;;17.87;;
29958;SDS011;16815;51.100;6.516;2022-12-18T14:46:04;30.37;;;18.00;;
29958;SDS011;16815;51.100;6.516;2022-12-18T14:48:38;29.03;;;18.00;;
29958;SDS011;16815;51.100;6.516;2022-12-18T14:51:05;28.70;;;17.13;;
29958;SDS011;16815;51.100;6.516;2022-12-18T14:53:34;28.07;;;18.00;;
29958;SDS011;16815;51.100;6.516;2022-12-18T14:56:01;26.53;;;17.77;;
29958;SDS011;16815;51.100;6.516;2022-12-18T14:58:27;30.10;;;20.83;;
29958;SDS011;16815;51.100;6.516;2022-12-18T15:00:53;28.33;;;19.77;;
29958;SDS011;16815;51.100;6.516;2022-12-18T15:03:20;35.20;;;23.17;;
29958;SDS011;16815;51.100;6.516;2022-12-18T15:05:46;35.70;;;23.83;;
29958;SDS011;16815;51.100;6.516;2022-12-18T15:08:29;27.40;;;19.23;;
29958;SDS011;16815;51.100;6.516;2022-12-18T15:10:55;30.77;;;18.83;;
29958;SDS011;16815;51.100;6.516;2022-12-18T15:13:22;26.23;;;17.73;;
29958;SDS011;16815;51.100;6.516;2022-12-18T15:15:49;28.97;;;18.87;;
29958;SDS011;16815;51.100;6.516;2022-12-18T15:18:16;29.63;;;18.57;;
29958;SDS011;16815;51.100;6.516;2022-12-18T15:20:54;31.10;;;21.20;;
29958;SDS011;16815;51.100;6.516;2022-12-18T15:23:36;33.23;;;20.17;;
29958;SDS011;16815;51.100;6.516;2022-12-18T15:26:04;28.93;;;20.13;;
29958;SDS011;16815;51.100;6.516;2022-12-18T15:31:01;59.57;;;31.10;;
29958;SDS011;16815;51.100;6.516;2022-12-18T15:33:31;29.40;;;20.00;;
29958;SDS011;16815;51.100;6.516;2022-12-18T15:36:02;31.27;;;20.27;;
29958;SDS011;16815;51.100;6.516;2022-12-18T15:38:29;32.80;;;20.70;;
29958;SDS011;16815;51.100;6.516;2022-12-18T15:40:55;37.03;;;26.37;;
29958;SDS011;16815;51.100;6.516;2022-12-18T15:43:22;37.90;;;22.60;;
29958;SDS011;16815;51.100;6.516;2022-12-18T15:46:02;32.00;;;22.20;;
29958;SDS011;16815;51.100;6.516;2022-12-18T15:48:28;36.50;;;25.33;;
29958;SDS011;16815;51.100;6.516;2022-12-18T15:50:55;33.40;;;21.33;;
29958;SDS011;16815;51.100;6.516;2022-12-18T15:53:22;32.30;;;19.63;;
29958;SDS011;16815;51.100;6.516;2022-12-18T15:55:48;40.73;;;23.50;;
29958;SDS011;16815;51.100;6.516;2022-12-18T15:58:33;30.40;;;19.63;;
29958;SDS011;16815;51.100;6.516;2022-12-18T16:01:00;34.03;;;23.57;;
29958;SDS011;16815;51.100;6.516;2022-12-18T16:03:26;33.93;;;21.23;;
29958;SDS011;16815;51.100;6.516;2022-12-18T16:05:52;36.97;;;23.07;;